createdAt,value
2018-04-02T00:02:02.439Z,1.9
2018-04-02T00:05:02.453Z,1.9
2018-04-02T00:08:02.493Z,1.9
2018-04-02T00:11:02.602Z,1.9
2018-04-02T00:14:02.482Z,1.9
2018-04-02T00:17:02.456Z,1.9
2018-04-02T00:20:02.465Z,2.1
2018-04-02T00:23:02.482Z,1.8
2018-04-02T00:26:02.468Z,2.1
2018-04-02T00:29:02.883Z,1.9
2018-04-02T00:32:02.468Z,2
2018-04-02T00:35:02.461Z,2
2018-04-02T00:38:02.446Z,2
2018-04-02T00:41:02.435Z,2
2018-04-02T00:44:02.427Z,1.9
2018-04-02T00:47:02.462Z,2
2018-04-02T00:50:02.444Z,1.8
2018-04-02T00:53:02.547Z,2.1
2018-04-02T00:56:02.436Z,2.1
2018-04-02T00:59:02.456Z,1.9
2018-04-02T01:02:02.443Z,2.1
2018-04-02T01:05:02.418Z,2.2
2018-04-02T01:08:02.681Z,2.1
2018-04-02T01:11:02.454Z,2.3
2018-04-02T01:14:02.474Z,1.9
2018-04-02T01:17:02.459Z,1.9
2018-04-02T01:20:02.463Z,2
2018-04-02T01:23:02.447Z,2
2018-04-02T01:26:02.455Z,2
2018-04-02T01:29:02.466Z,2.1
2018-04-02T01:32:02.443Z,1.9
2018-04-02T01:35:03.024Z,2
2018-04-02T01:38:02.452Z,2
2018-04-02T01:41:02.454Z,1.9
2018-04-02T01:44:02.527Z,2
2018-04-02T01:47:02.456Z,2
2018-04-02T01:50:02.985Z,2.1
2018-04-02T01:53:02.413Z,2.1
2018-04-02T01:56:02.432Z,2.5
2018-04-02T01:59:02.442Z,2
2018-04-02T02:02:02.432Z,1.9
2018-04-02T02:05:02.431Z,1.9
2018-04-02T02:08:02.405Z,2
2018-04-02T02:11:02.695Z,2.1
2018-04-02T02:14:02.426Z,2.2
2018-04-02T02:17:02.414Z,2.1
2018-04-02T02:20:02.435Z,2
2018-04-02T02:23:02.463Z,2.1
2018-04-02T02:26:02.481Z,2
2018-04-02T02:29:02.415Z,2.2
2018-04-02T02:32:02.441Z,2
2018-04-02T02:35:03.130Z,2
2018-04-02T02:38:02.470Z,1.9
2018-04-02T02:41:02.467Z,2
2018-04-02T02:44:02.437Z,2
2018-04-02T02:47:02.430Z,2
2018-04-02T02:50:02.477Z,2
2018-04-02T02:53:02.410Z,1.9
2018-04-02T02:56:02.445Z,2.2
2018-04-02T02:59:02.425Z,2.1
2018-04-02T03:02:02.471Z,2.1
2018-04-02T03:05:02.485Z,2.1
2018-04-02T03:08:02.442Z,2
2018-04-02T03:11:02.435Z,2.3
2018-04-02T03:14:02.419Z,2.3
2018-04-02T03:17:02.461Z,2.1
2018-04-02T03:20:02.418Z,2.2
2018-04-02T03:23:02.404Z,2.1
2018-04-02T03:26:02.413Z,2.2
2018-04-02T03:29:02.391Z,2
2018-04-02T03:32:02.396Z,2
2018-04-02T03:35:02.421Z,2.1
2018-04-02T03:38:02.420Z,2.2
2018-04-02T03:41:02.404Z,2.2
2018-04-02T03:44:02.421Z,2
2018-04-02T03:47:02.393Z,2.3
2018-04-02T03:50:02.452Z,2.1
2018-04-02T03:53:02.400Z,2.5
2018-04-02T03:56:02.381Z,2.3
2018-04-02T03:59:02.401Z,1.8
2018-04-02T04:02:02.694Z,2
2018-04-02T04:05:02.413Z,2
2018-04-02T04:08:02.402Z,2.1
2018-04-02T04:11:02.397Z,2.1
2018-04-02T04:14:02.376Z,1.8
2018-04-02T04:17:02.424Z,1.8
2018-04-02T04:20:02.431Z,1.9
2018-04-02T04:23:02.422Z,2
2018-04-02T04:26:02.378Z,1.9
2018-04-02T04:29:02.391Z,1.9
2018-04-02T04:32:02.405Z,2
2018-04-02T04:35:02.388Z,2.2
2018-04-02T04:38:02.393Z,2
2018-04-02T04:41:02.390Z,1.9
2018-04-02T04:44:02.399Z,2
2018-04-02T04:47:02.368Z,1.9
2018-04-02T04:50:02.571Z,2
2018-04-02T04:53:02.341Z,1.9
2018-04-02T04:56:02.446Z,1.9
2018-04-02T04:59:02.353Z,1.9
2018-04-02T05:02:02.348Z,1.9
2018-04-02T05:05:02.393Z,2
2018-04-02T05:08:02.366Z,2.1
2018-04-02T05:11:02.369Z,1.9
2018-04-02T05:14:02.382Z,1.9
2018-04-02T05:17:02.415Z,2.1
2018-04-02T05:20:02.359Z,1.8
2018-04-02T05:23:02.398Z,2.2
2018-04-02T05:26:02.375Z,2
2018-04-02T05:29:02.385Z,1.9
2018-04-02T05:32:02.374Z,1.9
2018-04-02T05:35:02.360Z,1.8
2018-04-02T05:38:02.385Z,2
2018-04-02T05:41:02.174Z,1.9
2018-04-02T05:44:02.363Z,1.8
2018-04-02T05:47:02.375Z,1.9
2018-04-02T05:50:02.355Z,1.9
2018-04-02T05:53:02.334Z,1.9
2018-04-02T05:56:02.334Z,1.9
2018-04-02T05:59:02.355Z,2
2018-04-02T06:02:02.356Z,1.9
2018-04-02T06:05:02.395Z,1.8
2018-04-02T06:08:02.323Z,1.8
2018-04-02T06:11:02.396Z,1.9
2018-04-02T06:14:02.347Z,2.1
2018-04-02T06:17:02.357Z,1.8
2018-04-02T06:20:02.457Z,1.9
2018-04-02T06:23:02.445Z,1.8
2018-04-02T06:26:02.349Z,2
2018-04-02T06:29:02.373Z,1.8
2018-04-02T06:32:02.333Z,2
2018-04-02T06:35:02.360Z,2
2018-04-02T06:38:02.319Z,2
2018-04-02T06:41:02.353Z,2
2018-04-02T06:44:02.349Z,1.9
2018-04-02T06:47:02.315Z,1.8
2018-04-02T06:50:02.360Z,2
2018-04-02T06:53:02.342Z,7.3
2018-04-02T06:56:02.438Z,7.8
2018-04-02T06:59:02.330Z,8.7
2018-04-02T07:02:02.391Z,7.8
2018-04-02T07:05:02.392Z,7.8
2018-04-02T07:08:02.342Z,6.9
2018-04-02T07:11:03.124Z,5.2
2018-04-02T07:14:02.362Z,5.2
2018-04-02T07:17:02.356Z,5
2018-04-02T07:20:02.365Z,3.3
2018-04-02T07:23:02.915Z,3.4
2018-04-02T07:26:02.340Z,3
2018-04-02T07:29:02.369Z,3.6
2018-04-02T07:32:02.366Z,2.8
2018-04-02T07:35:08.107Z,3.1
2018-04-02T07:38:02.303Z,3.1
2018-04-02T07:41:02.302Z,3.4
2018-04-02T07:44:02.346Z,3.3
2018-04-02T07:47:02.382Z,2.5
2018-04-02T07:50:02.349Z,2.4
2018-04-02T07:53:02.301Z,2.6
2018-04-02T07:56:02.384Z,2.7
2018-04-02T07:59:02.298Z,2.9
2018-04-02T08:02:02.359Z,2.6
2018-04-02T08:05:02.318Z,2.4
2018-04-02T08:08:02.328Z,2.5
2018-04-02T08:11:02.334Z,2.2
2018-04-02T08:14:02.343Z,2.2
2018-04-02T08:17:02.349Z,2.3
2018-04-02T08:20:02.341Z,2.3
2018-04-02T08:23:02.317Z,2.4
2018-04-02T08:26:02.312Z,2.5
2018-04-02T08:29:02.345Z,2.4
2018-04-02T08:32:02.316Z,2.1
2018-04-02T08:35:02.362Z,2.3
2018-04-02T08:38:02.334Z,2.1
2018-04-02T08:41:02.357Z,2.2
2018-04-02T08:44:02.305Z,2.6
2018-04-02T08:47:02.296Z,2.3
2018-04-02T08:50:02.325Z,2.2
2018-04-02T08:53:02.282Z,2.1
2018-04-02T08:56:02.276Z,2.1
2018-04-02T08:59:02.304Z,2.3
2018-04-02T09:02:02.333Z,2.3
2018-04-02T09:05:02.356Z,2.1
2018-04-02T09:08:02.287Z,2.2
2018-04-02T09:11:02.268Z,4.4
2018-04-02T09:14:02.298Z,2.1
2018-04-02T09:17:02.312Z,3
2018-04-02T09:20:02.303Z,2.1
2018-04-02T09:23:02.328Z,2.3
2018-04-02T09:26:02.309Z,2.9
2018-04-02T09:29:02.347Z,2.4
2018-04-02T09:32:02.288Z,2.6
2018-04-02T09:35:02.304Z,2.2
2018-04-02T09:38:02.281Z,2.2
2018-04-02T09:41:02.371Z,2
2018-04-02T09:44:02.291Z,4.6
2018-04-02T09:47:02.249Z,2.1
2018-04-02T09:50:02.292Z,2.3
2018-04-02T09:53:02.310Z,2.2
2018-04-02T09:56:02.321Z,3.1
2018-04-02T09:59:02.350Z,2
2018-04-02T10:02:04.389Z,2
2018-04-02T10:05:03.908Z,3.2
2018-04-02T10:08:02.277Z,3.9
2018-04-02T10:11:02.301Z,2.7
2018-04-02T10:14:02.298Z,2.4
2018-04-02T10:17:02.314Z,5.8
2018-04-02T10:20:02.306Z,2.2
2018-04-02T10:23:02.285Z,11.6
2018-04-02T10:26:02.297Z,5.5
2018-04-02T10:29:02.291Z,8.9
2018-04-02T10:32:02.269Z,3.9
2018-04-02T10:35:02.316Z,3.9
2018-04-02T10:38:08.956Z,5.1
2018-04-02T10:41:02.349Z,4.2
2018-04-02T10:44:02.285Z,4.3
2018-04-02T10:47:02.314Z,3.4
2018-04-02T10:50:02.298Z,2.7
2018-04-02T11:16:10.853Z,3.6
2018-04-02T11:19:10.815Z,6.9
2018-04-02T11:22:10.818Z,5.8
2018-04-02T11:25:10.807Z,2.7
2018-04-02T11:33:34.155Z,3.5
2018-04-02T11:36:34.144Z,5.4
2018-04-02T11:39:34.166Z,3.8
2018-04-02T11:42:34.161Z,3.5
2018-04-02T11:45:34.134Z,3.4
2018-04-02T11:52:42.867Z,2.3
2018-04-02T11:59:56.641Z,4.8
2018-04-02T12:02:56.678Z,2.8
2018-04-02T12:05:56.662Z,3.5
2018-04-02T12:08:56.656Z,3.5
2018-04-02T12:11:56.651Z,4.9
2018-04-02T12:14:56.661Z,4.9
2018-04-02T12:17:56.632Z,2.5
2018-04-02T12:20:57.469Z,3.9
2018-04-02T12:23:56.672Z,3.9
2018-04-02T12:26:56.694Z,2.6
2018-04-02T12:29:56.934Z,3.1
2018-04-02T12:32:56.680Z,4.4
2018-04-02T12:35:56.683Z,3.5
2018-04-02T12:38:56.635Z,4
2018-04-02T12:41:56.684Z,3.7
2018-04-02T12:44:56.665Z,3.2
2018-04-02T12:47:56.674Z,4
2018-04-02T12:50:56.629Z,3.7
2018-04-02T12:53:56.639Z,2
2018-04-02T12:56:56.970Z,2.5
2018-04-02T12:59:56.670Z,2.7
2018-04-02T13:02:56.647Z,1.9
2018-04-02T13:05:56.638Z,2.2
2018-04-02T13:08:56.660Z,2.5
2018-04-02T13:11:56.635Z,1.7
2018-04-02T13:14:56.639Z,1.9
2018-04-02T13:17:56.666Z,2.1
2018-04-02T13:20:56.675Z,2.4
2018-04-02T13:23:56.702Z,3
2018-04-02T13:26:56.673Z,2.7
2018-04-02T13:29:56.664Z,1.7
2018-04-02T13:32:56.645Z,2
2018-04-02T13:35:56.693Z,2
2018-04-02T13:38:56.722Z,1.6
2018-04-02T13:41:56.659Z,1.6
2018-04-02T13:44:56.669Z,1.9
2018-04-02T13:47:56.664Z,1.6
2018-04-02T13:50:56.629Z,2.4
2018-04-02T13:53:56.609Z,1.7
2018-04-02T13:56:56.671Z,2.1
2018-04-02T13:59:56.628Z,2
2018-04-02T14:02:56.713Z,1.9
2018-04-02T14:05:56.617Z,2.1
2018-04-02T14:08:56.718Z,1.7
2018-04-02T14:11:56.623Z,2
2018-04-02T14:14:56.650Z,1.5
2018-04-02T14:17:56.627Z,2.8
2018-04-02T14:20:56.624Z,8.8
2018-04-02T14:23:56.683Z,5.6
2018-04-02T14:26:56.626Z,3.3
2018-04-02T14:29:56.735Z,3.8
2018-04-02T14:32:56.827Z,3.2
2018-04-02T14:35:56.779Z,5.2
2018-04-02T14:38:56.634Z,3.2
2018-04-02T14:41:56.681Z,5.1
2018-04-02T14:44:56.633Z,2.1
2018-04-02T14:47:56.594Z,3.7
2018-04-02T14:50:56.588Z,1.6
2018-04-02T14:53:56.584Z,4.9
2018-04-02T14:56:56.690Z,3.6
2018-04-02T14:59:56.621Z,2.4
2018-04-02T15:02:56.645Z,2.3
2018-04-02T15:05:56.623Z,2.8
2018-04-02T15:08:56.588Z,2.2
2018-04-02T15:14:16.706Z,6.7
2018-04-02T15:17:16.613Z,2.4
2018-04-02T15:20:16.615Z,1.9
2018-04-02T15:23:16.634Z,2.4
2018-04-02T15:26:16.655Z,2.5
2018-04-02T15:29:17.221Z,3
2018-04-02T15:32:16.651Z,2.2
2018-04-02T15:44:54.226Z,4
2018-04-02T15:47:54.227Z,2.6
2018-04-02T15:50:54.708Z,2.4
2018-04-02T15:53:54.214Z,1.9
2018-04-02T15:56:54.258Z,2.7
2018-04-02T15:59:54.268Z,3.9
2018-04-02T16:02:54.242Z,3.2
2018-04-02T16:12:16.123Z,3.3
2018-04-02T16:15:16.123Z,2.3
2018-04-02T16:18:16.288Z,2.8
2018-04-02T16:21:16.155Z,3
2018-04-02T16:31:41.318Z,3.4
2018-04-02T16:34:41.305Z,2.1
2018-04-02T16:40:35.045Z,2.9
2018-04-02T16:43:34.772Z,2.5
2018-04-02T16:46:34.793Z,1.9
2018-04-02T16:49:34.875Z,2.7
2018-04-02T16:52:34.802Z,4.1
2018-04-02T16:55:34.769Z,6.9
2018-04-02T16:58:34.814Z,4.1
2018-04-02T17:01:34.762Z,4.7
2018-04-02T17:04:34.816Z,3.9
2018-04-02T17:07:34.783Z,4.3
2018-04-02T17:10:34.733Z,5.1
2018-04-02T17:13:34.787Z,4.6
2018-04-02T17:18:01.831Z,3.3
2018-04-02T17:21:01.844Z,5.4
2018-04-02T17:24:01.828Z,4.7
2018-04-02T17:27:01.823Z,3.9
2018-04-02T17:30:01.821Z,4
2018-04-02T17:33:01.818Z,4.1
2018-04-02T17:36:01.830Z,8.8
2018-04-02T17:39:01.817Z,5.9
2018-04-02T17:42:01.886Z,6.7
2018-04-02T17:45:01.869Z,6.4
2018-04-02T17:51:21.565Z,10.2
2018-04-02T17:54:21.561Z,6.5
2018-04-02T17:57:21.549Z,4.1
2018-04-02T18:00:21.530Z,7
2018-04-02T18:03:21.651Z,7.6
2018-04-02T18:06:21.596Z,4.5
2018-04-02T18:09:21.561Z,6.3
2018-04-02T18:12:21.592Z,6.4
2018-04-02T18:15:21.549Z,5.8
2018-04-02T18:18:21.584Z,3.8
2018-04-02T18:21:21.545Z,3.8
2018-04-02T18:24:21.528Z,4.7
2018-04-02T18:27:21.522Z,3.3
2018-04-02T18:30:21.540Z,4.6
2018-04-02T18:33:21.592Z,3.2
2018-04-02T18:36:21.520Z,3.7
2018-04-02T18:39:21.575Z,3.2
2018-04-02T18:42:21.531Z,4.1
2018-04-02T18:45:21.543Z,4.2
2018-04-02T18:48:21.620Z,2.7
2018-04-02T18:51:21.556Z,3.2
2018-04-02T18:54:21.638Z,4.4
2018-04-02T18:57:21.585Z,3.7
2018-04-02T19:00:21.591Z,4.8
2018-04-02T19:03:21.553Z,2.7
2018-04-02T19:06:21.559Z,3
2018-04-02T19:09:21.545Z,3.2
2018-04-02T19:12:21.588Z,2.9
2018-04-02T19:15:21.580Z,4
2018-04-02T19:18:21.877Z,2.9
2018-04-02T19:21:21.596Z,4.8
2018-04-02T19:24:21.598Z,3.6
2018-04-02T19:27:21.542Z,3.2
2018-04-02T19:30:21.636Z,3.8
2018-04-02T19:33:21.570Z,4.2
2018-04-02T19:36:21.593Z,2.8
2018-04-02T19:39:21.618Z,3.5
2018-04-02T19:42:21.548Z,3.4
2018-04-02T19:45:21.550Z,6.1
2018-04-02T19:48:21.674Z,4.1
2018-04-02T19:51:21.558Z,3.9
2018-04-02T19:54:21.864Z,4.5
2018-04-02T19:57:21.623Z,3
2018-04-02T20:00:21.604Z,3.7
2018-04-02T20:03:21.543Z,4.9
2018-04-02T20:06:21.539Z,3.2
2018-04-02T20:09:21.572Z,3.9
2018-04-02T20:12:21.547Z,4.3
2018-04-02T20:15:21.563Z,4.5
2018-04-02T20:18:21.654Z,2.8
2018-04-02T20:21:21.551Z,2.7
2018-04-02T20:24:21.572Z,2.8
2018-04-02T20:27:21.847Z,3
2018-04-02T20:30:21.527Z,3.8
2018-04-02T20:33:21.634Z,4.8
2018-04-02T20:36:21.655Z,2.8
2018-04-02T20:39:21.733Z,2.9
2018-04-02T20:42:21.610Z,3.3
2018-04-02T20:45:21.881Z,3.2
2018-04-02T20:48:21.584Z,4.1
2018-04-02T20:51:21.528Z,2.7
2018-04-02T20:54:21.514Z,3.3
2018-04-02T20:57:21.734Z,2.9
2018-04-02T21:00:21.783Z,3.8
2018-04-02T21:03:24.231Z,2.8
2018-04-02T21:06:21.801Z,2.7
2018-04-02T21:09:21.519Z,3.9
2018-04-02T21:12:21.915Z,2.7
2018-04-02T21:15:21.540Z,2.5
2018-04-02T21:18:21.546Z,3.4
2018-04-02T21:21:21.646Z,2.5
2018-04-02T21:24:21.545Z,2.9
2018-04-02T21:27:22.210Z,2.5
2018-04-02T21:30:21.599Z,2.6
2018-04-02T21:33:21.945Z,2.8
2018-04-02T21:36:21.514Z,2.4
2018-04-02T21:39:21.561Z,3.4
2018-04-02T21:42:21.560Z,2.3
2018-04-02T21:45:21.840Z,3.5
2018-04-02T21:48:21.516Z,2.7
2018-04-02T21:51:21.599Z,3.2
2018-04-02T21:54:22.147Z,2.7
2018-04-02T21:57:21.851Z,2.5
2018-04-02T22:00:21.520Z,3.7
2018-04-02T22:03:21.523Z,2.8
2018-04-02T22:06:21.709Z,3.5
2018-04-02T22:09:21.555Z,2.5
2018-04-02T22:12:21.822Z,3.3
2018-04-02T22:15:22.139Z,2.5
2018-04-02T22:18:21.490Z,2.6
2018-04-02T22:21:21.528Z,2.7
2018-04-02T22:24:21.775Z,2.8
2018-04-02T22:27:21.556Z,2.5
2018-04-02T22:30:21.473Z,2.9
2018-04-02T22:33:21.491Z,2.7
2018-04-02T22:36:21.749Z,2.5
2018-04-02T22:39:21.500Z,3
2018-04-02T22:42:21.647Z,2.5
2018-04-02T22:45:21.721Z,2.5
2018-04-02T22:48:21.685Z,2.5
2018-04-02T22:51:21.487Z,2.5
2018-04-02T22:54:21.491Z,2.3
2018-04-02T22:57:21.496Z,2.3
2018-04-02T23:00:21.681Z,2.3
2018-04-02T23:03:21.607Z,2.7
2018-04-02T23:06:21.546Z,2.4
2018-04-02T23:09:21.511Z,2.5
2018-04-02T23:12:21.501Z,2.5
2018-04-02T23:15:21.477Z,2.4
2018-04-02T23:18:21.651Z,2.5
2018-04-02T23:21:21.495Z,3.2
2018-04-02T23:24:21.793Z,2.4
2018-04-02T23:27:21.447Z,2.9
2018-04-02T23:30:21.504Z,2.7
2018-04-02T23:33:21.633Z,2.5
2018-04-02T23:36:21.520Z,2.4
2018-04-02T23:39:21.481Z,2.3
2018-04-02T23:42:21.531Z,2.7
2018-04-02T23:45:21.568Z,2.5
2018-04-02T23:48:21.518Z,2.3
2018-04-02T23:51:21.657Z,2.5
2018-04-02T23:54:21.492Z,2.8
2018-04-02T23:57:21.525Z,2.4
